Pratt, Minnesota
Current Conditions -  °F | °C
As of 3:35 PM on Friday 31 Oct 2014 (Local Time) from KOWA Reporting Station
Clear Clear  
Wind Chill: 34°   Ceiling: Unl
Heat Index: 39°   Visibility: 10mi
Dew Point: 16°   Wind: 8mph
Humidity: 39%   Direction: 350°N
Pressure: 30.48"   Gusts: NA
Location:  44.0575°N, 93.2082°W
Report Text: KOWA 312035Z AUTO 35007KT 10SM CLR 04/M09 A3048 RMK AO2
Loading
Personal Weather Stations






























Interactive Weather Map New forecast layout! Learn more

10-Day Weather Forecast

Advertisements
Track Severe Weather on mobile